Memphis, Tennessee
Current Conditions -  °F | °C
As of 1:54 PM on Wednesday 17 Dec 2014 (Local Time) from KMEM Reporting Station
Overcast Overcast  
Wind Chill: 44°   Ceiling: 18000
Heat Index: 44°   Visibility: 10mi
Dew Point: 32°   Wind: 0mph
Humidity: 63%   Direction: NA
Pressure: 30.27"   Gusts: NA
Location:  35.15°N, 90.05°W
Report Text: KMEM 171954Z 00000KT 10SM FEW020 OVC180 07/00 A3027 RMK AO2 SLPNO T00670000
Loading
Personal Weather Stations






























Interactive Weather Map New forecast layout! Learn more

10-Day Weather Forecast

Advertisements
Track Severe Weather on mobile